createdAt,value
2022-12-14T00:00:03.860Z,80
2022-12-14T00:01:11.482Z,79
2022-12-14T00:02:21.186Z,79
2022-12-14T00:03:28.261Z,79
2022-12-14T00:04:35.319Z,79
2022-12-14T00:05:42.370Z,79
2022-12-14T00:06:49.553Z,79
2022-12-14T00:07:56.698Z,79
2022-12-14T00:09:03.939Z,79
2022-12-14T00:10:11.582Z,79
2022-12-14T00:11:18.611Z,79
2022-12-14T00:12:28.335Z,79
2022-12-14T00:13:35.516Z,79
2022-12-14T00:14:42.570Z,79
2022-12-14T00:15:49.863Z,79
2022-12-14T00:16:56.922Z,79
2022-12-14T00:18:03.910Z,79
2022-12-14T00:19:11.123Z,79
2022-12-14T00:20:18.206Z,79
2022-12-14T00:21:25.426Z,79
2022-12-14T00:22:32.566Z,79
2022-12-14T00:23:39.662Z,79
2022-12-14T00:24:46.728Z,79
2022-12-14T00:25:53.899Z,79
2022-12-14T00:27:01.051Z,79
2022-12-14T00:28:08.127Z,79
2022-12-14T00:29:15.339Z,79
2022-12-14T00:30:22.359Z,80
2022-12-14T00:31:29.678Z,80
2022-12-14T00:32:36.731Z,80
2022-12-14T00:33:43.742Z,80
2022-12-14T00:34:50.894Z,80
2022-12-14T00:35:58.163Z,80
2022-12-14T00:37:05.219Z,79
2022-12-14T00:38:12.407Z,79
2022-12-14T00:39:19.531Z,79
2022-12-14T00:40:26.658Z,79
2022-12-14T00:41:33.950Z,79
2022-12-14T00:42:40.854Z,79
2022-12-14T00:43:49.143Z,79
2022-12-14T00:44:55.206Z,79
2022-12-14T00:46:02.332Z,79
2022-12-14T00:47:09.398Z,78
2022-12-14T00:48:16.631Z,79
2022-12-14T00:49:23.778Z,78
2022-12-14T00:50:30.926Z,79
2022-12-14T00:51:38.038Z,78
2022-12-14T00:52:45.027Z,78
2022-12-14T00:53:52.258Z,78
2022-12-14T00:54:59.394Z,78
2022-12-14T00:56:06.516Z,78
2022-12-14T00:57:14.602Z,78
2022-12-14T00:58:21.802Z,78
2022-12-14T00:59:28.914Z,79
2022-12-14T01:00:36.149Z,79
2022-12-14T01:01:43.279Z,79
2022-12-14T01:02:50.395Z,79
2022-12-14T01:03:57.536Z,79
2022-12-14T01:05:09.678Z,79
2022-12-14T01:06:16.963Z,79
2022-12-14T01:07:23.923Z,79
2022-12-14T01:08:31.004Z,78
2022-12-14T01:09:41.152Z,78
2022-12-14T01:10:48.502Z,78
2022-12-14T01:11:55.406Z,78
2022-12-14T01:13:02.691Z,78
2022-12-14T01:14:09.815Z,77
2022-12-14T01:15:16.822Z,78
2022-12-14T01:16:24.068Z,78
2022-12-14T01:17:31.094Z,77
2022-12-14T01:18:38.194Z,78
2022-12-14T01:19:45.364Z,78
2022-12-14T01:20:52.493Z,78
2022-12-14T01:21:59.534Z,78
2022-12-14T01:23:06.746Z,78
2022-12-14T01:24:13.802Z,79
2022-12-14T01:25:20.985Z,79
2022-12-14T01:26:28.317Z,79
2022-12-14T01:27:35.286Z,79
2022-12-14T01:28:42.314Z,79
2022-12-14T01:29:49.355Z,79
2022-12-14T01:30:56.580Z,79
2022-12-14T01:32:03.831Z,79
2022-12-14T01:33:10.931Z,79
2022-12-14T01:34:17.979Z,79
2022-12-14T01:35:25.155Z,79
2022-12-14T01:36:32.325Z,79
2022-12-14T01:37:39.303Z,79
2022-12-14T01:38:46.485Z,80
2022-12-14T01:39:58.646Z,80
2022-12-14T01:41:06.138Z,80
2022-12-14T01:42:13.582Z,80
2022-12-14T01:43:20.601Z,79
2022-12-14T01:44:27.714Z,79
2022-12-14T01:45:34.821Z,79
2022-12-14T01:46:42.067Z,79
2022-12-14T01:47:49.103Z,79
2022-12-14T01:49:01.776Z,79
2022-12-14T01:50:16.634Z,79
2022-12-14T01:51:29.894Z,78
2022-12-14T01:52:37.222Z,79
2022-12-14T01:53:49.666Z,78
2022-12-14T01:54:56.979Z,78
2022-12-14T01:56:12.077Z,78
2022-12-14T01:57:19.261Z,78
2022-12-14T01:58:26.493Z,78
2022-12-14T01:59:33.559Z,77
2022-12-14T02:00:40.535Z,77
2022-12-14T02:01:48.262Z,77
2022-12-14T02:02:54.963Z,76
2022-12-14T02:04:07.574Z,77
2022-12-14T02:05:14.692Z,77
2022-12-14T02:06:21.833Z,77
2022-12-14T02:07:34.118Z,77
2022-12-14T02:08:41.149Z,77
2022-12-14T02:09:48.277Z,77
2022-12-14T02:10:55.430Z,77
2022-12-14T02:12:02.542Z,77
2022-12-14T02:13:09.601Z,78
2022-12-14T02:14:19.406Z,78
2022-12-14T02:15:26.449Z,78
2022-12-14T02:16:33.609Z,78
2022-12-14T02:17:40.747Z,77
2022-12-14T02:18:48.009Z,78
2022-12-14T02:19:54.987Z,78
2022-12-14T02:21:02.142Z,78
2022-12-14T02:22:16.919Z,78
2022-12-14T02:23:29.833Z,78
2022-12-14T02:24:41.302Z,78
2022-12-14T02:25:58.698Z,78
2022-12-14T02:27:10.917Z,78
2022-12-14T02:28:24.050Z,79
2022-12-14T02:29:39.549Z,80
2022-12-14T02:30:54.732Z,80
2022-12-14T02:32:06.930Z,79
2022-12-14T02:33:22.254Z,79
2022-12-14T02:34:34.570Z,79
2022-12-14T02:35:47.506Z,80
2022-12-14T02:36:57.313Z,80
2022-12-14T02:38:06.977Z,80
2022-12-14T02:39:22.621Z,80
2022-12-14T02:40:35.077Z,80
2022-12-14T02:41:50.254Z,80
2022-12-14T02:43:05.518Z,80
2022-12-14T02:44:15.862Z,80
2022-12-14T02:45:28.170Z,80
2022-12-14T02:46:40.648Z,80
2022-12-14T02:47:53.320Z,80
2022-12-14T02:49:05.514Z,80
2022-12-14T02:50:17.809Z,80
2022-12-14T02:51:34.053Z,79
2022-12-14T02:52:51.614Z,79
2022-12-14T02:54:06.599Z,80
2022-12-14T02:55:16.476Z,80
2022-12-14T02:56:29.597Z,80
2022-12-14T02:57:44.874Z,80
2022-12-14T02:58:57.038Z,80
2022-12-14T03:00:04.379Z,80
2022-12-14T03:01:11.965Z,80
2022-12-14T03:02:19.078Z,80
2022-12-14T03:03:26.343Z,80
2022-12-14T03:04:33.266Z,80
2022-12-14T03:05:43.319Z,80
2022-12-14T03:06:58.579Z,80
2022-12-14T03:08:05.737Z,79
2022-12-14T03:09:12.883Z,79
2022-12-14T03:10:20.067Z,79
2022-12-14T03:11:35.362Z,79
2022-12-14T03:12:50.505Z,79
2022-12-14T03:13:57.848Z,79
2022-12-14T03:15:04.842Z,79
2022-12-14T03:16:12.096Z,79
2022-12-14T03:17:19.752Z,79
2022-12-14T03:18:26.230Z,79
2022-12-14T03:19:33.423Z,79
2022-12-14T03:20:48.553Z,79
2022-12-14T03:21:55.731Z,78
2022-12-14T03:23:02.918Z,78
2022-12-14T03:24:13.089Z,79
2022-12-14T03:25:20.235Z,79
2022-12-14T03:26:29.998Z,79
2022-12-14T03:27:47.682Z,80
2022-12-14T03:28:57.358Z,79
2022-12-14T03:30:04.498Z,79
2022-12-14T03:31:14.776Z,79
2022-12-14T03:32:29.667Z,79
2022-12-14T03:33:36.731Z,79
2022-12-14T03:34:43.705Z,79
2022-12-14T03:35:55.999Z,79
2022-12-14T03:37:06.552Z,79
2022-12-14T03:38:16.550Z,79
2022-12-14T03:39:23.458Z,80
2022-12-14T03:40:30.614Z,79
2022-12-14T03:41:37.823Z,80
2022-12-14T03:42:53.038Z,80
2022-12-14T03:44:07.790Z,80
2022-12-14T03:45:25.118Z,80
2022-12-14T03:46:32.208Z,80
2022-12-14T03:47:49.442Z,80
2022-12-14T03:49:04.642Z,80
2022-12-14T03:50:17.919Z,80
2022-12-14T03:51:27.586Z,80
2022-12-14T03:52:34.721Z,80
2022-12-14T03:53:46.930Z,80
2022-12-14T03:55:04.219Z,80
2022-12-14T03:56:16.474Z,80
2022-12-14T03:57:23.696Z,80
2022-12-14T03:58:41.428Z,80
2022-12-14T03:59:59.166Z,80
2022-12-14T04:01:06.288Z,80
2022-12-14T04:02:13.500Z,79
2022-12-14T04:03:25.981Z,79
2022-12-14T04:04:39.051Z,80
2022-12-14T04:05:51.623Z,80
2022-12-14T04:07:06.310Z,80
2022-12-14T04:08:16.014Z,79
2022-12-14T04:09:30.978Z,80
2022-12-14T04:10:37.977Z,80
2022-12-14T04:11:50.242Z,80
2022-12-14T04:13:10.516Z,79
2022-12-14T04:14:22.741Z,79
2022-12-14T04:15:35.070Z,79
2022-12-14T04:16:47.539Z,79
2022-12-14T04:17:59.777Z,79
2022-12-14T04:19:11.893Z,79
2022-12-14T04:20:22.129Z,79
2022-12-14T04:21:31.856Z,79
2022-12-14T04:22:47.008Z,79
2022-12-14T04:23:59.200Z,78
2022-12-14T04:25:16.583Z,78
2022-12-14T04:26:28.813Z,78
2022-12-14T04:27:36.066Z,78
2022-12-14T04:28:42.993Z,78
2022-12-14T04:29:57.798Z,78
2022-12-14T04:31:05.058Z,78
2022-12-14T04:32:12.234Z,78
2022-12-14T04:33:29.905Z,78
2022-12-14T04:34:41.598Z,78
2022-12-14T04:35:48.673Z,78
2022-12-14T04:36:55.904Z,78
2022-12-14T04:38:03.161Z,78
2022-12-14T04:39:15.143Z,78
2022-12-14T04:40:22.367Z,78
2022-12-14T04:41:34.598Z,78
2022-12-14T04:42:41.658Z,78
2022-12-14T04:43:56.450Z,78
2022-12-14T04:45:03.579Z,78
2022-12-14T04:46:10.785Z,78
2022-12-14T04:47:18.758Z,78
2022-12-14T04:48:26.109Z,78
2022-12-14T04:49:38.298Z,78
2022-12-14T04:50:53.845Z,78
2022-12-14T04:52:09.349Z,79
2022-12-14T04:53:19.081Z,78
2022-12-14T04:54:26.386Z,78
2022-12-14T04:55:38.977Z,78
2022-12-14T04:56:45.837Z,78
2022-12-14T04:57:58.137Z,78
2022-12-14T04:59:05.351Z,78
2022-12-14T05:00:12.396Z,77
2022-12-14T05:01:19.694Z,77
2022-12-14T05:02:35.012Z,78
2022-12-14T05:03:52.014Z,78
2022-12-14T05:05:07.577Z,78
2022-12-14T05:06:22.663Z,78
2022-12-14T05:07:34.837Z,79
2022-12-14T05:08:50.098Z,78
2022-12-14T05:10:05.322Z,78
2022-12-14T05:11:49.965Z,78
2022-12-14T05:12:27.751Z,78
2022-12-14T05:13:40.089Z,78
2022-12-14T05:14:46.993Z,78
2022-12-14T05:16:01.885Z,78
2022-12-14T05:17:09.522Z,78
2022-12-14T05:18:15.993Z,78
2022-12-14T05:19:23.138Z,78
2022-12-14T05:20:30.357Z,78
2022-12-14T05:21:37.833Z,78
2022-12-14T05:22:50.024Z,78
2022-12-14T05:23:57.249Z,78
2022-12-14T05:25:04.365Z,78
2022-12-14T05:26:11.457Z,78
2022-12-14T05:27:18.681Z,78
2022-12-14T05:28:25.738Z,78
2022-12-14T05:29:32.846Z,78
2022-12-14T05:30:40.150Z,78
2022-12-14T05:31:49.055Z,78
2022-12-14T05:32:54.177Z,78
2022-12-14T05:34:01.331Z,78
2022-12-14T05:35:08.593Z,78
2022-12-14T05:36:15.562Z,78
2022-12-14T05:37:22.692Z,78
2022-12-14T05:38:29.881Z,77
2022-12-14T05:39:37.038Z,77
2022-12-14T05:40:44.013Z,77
2022-12-14T05:41:51.128Z,77
2022-12-14T05:42:58.309Z,77
2022-12-14T05:44:08.509Z,77
2022-12-14T05:45:15.659Z,77
2022-12-14T05:46:22.864Z,77
2022-12-14T05:47:29.993Z,77
2022-12-14T05:48:37.068Z,77
2022-12-14T05:49:44.045Z,78
2022-12-14T05:50:51.294Z,77
2022-12-14T05:51:58.377Z,77
2022-12-14T05:53:05.638Z,77
2022-12-14T05:54:12.767Z,77
2022-12-14T05:55:19.746Z,77
2022-12-14T05:56:26.974Z,78
2022-12-14T05:57:34.660Z,77
2022-12-14T05:58:41.712Z,77
2022-12-14T05:59:48.801Z,78
2022-12-14T06:00:56.213Z,78
2022-12-14T06:02:06.429Z,78
2022-12-14T06:03:13.298Z,78
2022-12-14T06:04:20.706Z,78
2022-12-14T06:05:27.627Z,77
2022-12-14T06:06:34.752Z,77
2022-12-14T06:07:41.939Z,78
2022-12-14T06:08:49.010Z,78
2022-12-14T06:09:56.056Z,78
2022-12-14T06:11:03.239Z,78
2022-12-14T06:12:12.916Z,78
2022-12-14T06:13:20.037Z,78
2022-12-14T06:14:27.201Z,78
2022-12-14T06:15:34.600Z,78
2022-12-14T06:16:41.624Z,78
2022-12-14T06:17:48.569Z,77
2022-12-14T06:18:55.644Z,78
2022-12-14T06:20:03.601Z,78
2022-12-14T06:21:10.996Z,78
2022-12-14T06:22:18.192Z,78
2022-12-14T06:23:25.614Z,77
2022-12-14T06:24:32.457Z,77
2022-12-14T06:25:39.528Z,78
2022-12-14T06:26:46.609Z,78
2022-12-14T06:27:53.723Z,78
2022-12-14T06:29:00.907Z,78
2022-12-14T06:30:08.036Z,78
2022-12-14T06:31:15.686Z,78
2022-12-14T06:32:25.349Z,78
2022-12-14T06:33:32.446Z,78
2022-12-14T06:34:42.215Z,78
2022-12-14T06:35:46.644Z,78
2022-12-14T06:36:53.764Z,78
2022-12-14T06:38:01.024Z,78
2022-12-14T06:39:08.077Z,79
2022-12-14T06:40:15.226Z,79
2022-12-14T06:41:22.400Z,79
2022-12-14T06:42:29.526Z,79
2022-12-14T06:43:36.745Z,79
2022-12-14T06:44:43.649Z,79
2022-12-14T06:45:50.857Z,79
2022-12-14T06:46:58.029Z,79
2022-12-14T06:48:05.121Z,78
2022-12-14T06:49:12.333Z,78
2022-12-14T06:50:19.617Z,78
2022-12-14T06:51:26.544Z,79
2022-12-14T06:52:33.661Z,79
2022-12-14T06:53:40.794Z,79
2022-12-14T06:54:47.833Z,79
2022-12-14T06:55:55.163Z,78
2022-12-14T06:57:12.798Z,78
2022-12-14T06:58:19.953Z,79
2022-12-14T06:59:27.121Z,79
2022-12-14T07:00:34.353Z,79
2022-12-14T07:01:41.670Z,79
2022-12-14T07:02:48.746Z,79
2022-12-14T07:03:55.601Z,78
2022-12-14T07:05:02.794Z,78
2022-12-14T07:06:09.893Z,78
2022-12-14T07:07:17.073Z,79
2022-12-14T07:08:24.180Z,79
2022-12-14T07:09:31.453Z,79
2022-12-14T07:10:38.497Z,79
2022-12-14T07:11:45.492Z,79
2022-12-14T07:12:55.235Z,79
2022-12-14T07:14:02.393Z,79
2022-12-14T07:15:09.510Z,79
2022-12-14T07:16:16.757Z,79
2022-12-14T07:17:24.767Z,79
2022-12-14T07:18:32.843Z,79
2022-12-14T07:19:40.166Z,79
2022-12-14T07:20:47.265Z,79
2022-12-14T07:22:04.708Z,79
2022-12-14T07:23:11.837Z,78
2022-12-14T07:24:18.896Z,79
2022-12-14T07:25:25.978Z,79
2022-12-14T07:26:33.204Z,79
2022-12-14T07:27:40.328Z,79
2022-12-14T07:28:47.412Z,79
2022-12-14T07:29:54.553Z,79
2022-12-14T07:31:01.665Z,79
2022-12-14T07:32:08.798Z,79
2022-12-14T07:33:15.944Z,79
2022-12-14T07:34:23.160Z,79
2022-12-14T07:35:30.264Z,79
2022-12-14T07:36:37.651Z,79
2022-12-14T07:37:45.559Z,79
2022-12-14T07:38:52.040Z,79
2022-12-14T07:40:02.429Z,79
2022-12-14T07:41:09.917Z,79
2022-12-14T07:42:16.984Z,79
2022-12-14T07:43:24.596Z,79
2022-12-14T07:44:32.460Z,78
2022-12-14T07:45:39.409Z,79
2022-12-14T07:46:46.618Z,79
2022-12-14T07:47:53.593Z,79
2022-12-14T07:49:00.804Z,78
2022-12-14T07:50:07.888Z,78
2022-12-14T07:51:15.071Z,78
2022-12-14T07:52:22.183Z,78
2022-12-14T07:53:29.817Z,78
2022-12-14T07:54:36.481Z,78
2022-12-14T07:55:43.579Z,78
2022-12-14T07:56:50.726Z,78
2022-12-14T07:57:57.976Z,78
2022-12-14T07:59:05.336Z,78
2022-12-14T08:00:12.536Z,77
2022-12-14T08:01:19.718Z,78
2022-12-14T08:02:26.916Z,78
2022-12-14T08:03:34.073Z,78
2022-12-14T08:04:41.044Z,78
2022-12-14T08:05:48.118Z,78
2022-12-14T08:06:55.445Z,77
2022-12-14T08:08:02.762Z,77
2022-12-14T08:09:11.028Z,77
2022-12-14T08:10:18.579Z,77
2022-12-14T08:11:25.915Z,77
2022-12-14T08:12:33.113Z,77
2022-12-14T08:13:40.199Z,77
2022-12-14T08:14:55.294Z,77
2022-12-14T08:16:05.146Z,77
2022-12-14T08:17:25.260Z,77
2022-12-14T08:18:32.363Z,77
2022-12-14T08:19:39.174Z,78
2022-12-14T08:20:51.584Z,77
2022-12-14T08:21:53.502Z,77
2022-12-14T08:23:00.503Z,78
2022-12-14T08:24:07.724Z,78
2022-12-14T08:25:14.873Z,78
2022-12-14T08:26:22.896Z,78
2022-12-14T08:27:30.271Z,77
2022-12-14T08:28:37.475Z,77
2022-12-14T08:29:47.460Z,77
2022-12-14T08:30:54.796Z,78
2022-12-14T08:32:02.213Z,77
2022-12-14T08:33:09.412Z,78
2022-12-14T08:34:17.334Z,78
2022-12-14T08:35:24.612Z,77
2022-12-14T08:36:31.908Z,77
2022-12-14T08:37:42.897Z,77
2022-12-14T08:38:46.023Z,77
2022-12-14T08:40:03.696Z,77
2022-12-14T08:41:11.196Z,77
2022-12-14T08:42:18.248Z,77
2022-12-14T08:43:25.348Z,77
2022-12-14T08:44:32.411Z,77
2022-12-14T08:45:41.194Z,77
2022-12-14T08:46:48.909Z,77
2022-12-14T08:47:56.123Z,77
2022-12-14T08:49:03.620Z,76
2022-12-14T08:50:10.530Z,76
2022-12-14T08:51:17.713Z,77
2022-12-14T08:52:24.879Z,77
2022-12-14T08:53:32.825Z,77
2022-12-14T08:54:39.800Z,77
2022-12-14T08:55:46.678Z,77
2022-12-14T08:56:54.161Z,77
2022-12-14T08:58:01.477Z,76
2022-12-14T08:59:15.875Z,76
2022-12-14T09:00:16.269Z,76
2022-12-14T09:01:28.292Z,77
2022-12-14T09:02:31.975Z,77
2022-12-14T09:03:38.732Z,76
2022-12-14T09:04:45.799Z,76
2022-12-14T09:05:52.955Z,76
2022-12-14T09:07:00.171Z,76
2022-12-14T09:08:07.343Z,76
2022-12-14T09:09:16.580Z,76
2022-12-14T09:10:21.492Z,76
2022-12-14T09:11:30.143Z,76
2022-12-14T09:12:37.263Z,76
2022-12-14T09:13:44.651Z,76
2022-12-14T09:14:52.912Z,76
2022-12-14T09:16:00.381Z,76
2022-12-14T09:17:10.543Z,76
2022-12-14T09:18:17.516Z,76
2022-12-14T09:19:24.590Z,76
2022-12-14T09:20:31.720Z,76
2022-12-14T09:21:38.916Z,77
2022-12-14T09:22:45.928Z,77
2022-12-14T09:23:57.497Z,76
2022-12-14T09:25:00.239Z,76
2022-12-14T09:26:07.311Z,76
2022-12-14T09:27:19.587Z,75
2022-12-14T09:28:27.251Z,75
2022-12-14T09:29:34.320Z,75
2022-12-14T09:30:41.376Z,75
2022-12-14T09:31:48.630Z,76
2022-12-14T09:32:55.737Z,75
2022-12-14T09:34:02.720Z,76
2022-12-14T09:35:09.935Z,76
2022-12-14T09:36:18.153Z,76
2022-12-14T09:37:25.180Z,76
2022-12-14T09:38:32.360Z,76
2022-12-14T09:39:39.457Z,76
2022-12-14T09:40:46.874Z,76
2022-12-14T09:41:57.828Z,76
2022-12-14T09:43:09.226Z,75
2022-12-14T09:44:18.636Z,76
2022-12-14T09:45:29.075Z,75
2022-12-14T09:46:36.021Z,75
2022-12-14T09:47:53.257Z,75
2022-12-14T09:49:05.458Z,75
2022-12-14T09:50:22.755Z,75
2022-12-14T09:51:29.997Z,75
2022-12-14T09:52:37.082Z,76
2022-12-14T09:53:44.197Z,76
2022-12-14T09:54:51.323Z,77
2022-12-14T09:55:58.381Z,76
2022-12-14T09:57:05.577Z,76
2022-12-14T09:58:12.724Z,76
2022-12-14T09:59:24.913Z,76
2022-12-14T10:00:32.264Z,75
2022-12-14T10:01:39.978Z,76
2022-12-14T10:02:49.520Z,76
2022-12-14T10:04:06.716Z,76
2022-12-14T10:05:22.178Z,76
2022-12-14T10:06:37.206Z,75
2022-12-14T10:07:49.391Z,76
2022-12-14T10:09:02.122Z,76
2022-12-14T10:10:19.372Z,76
2022-12-14T10:11:26.796Z,75
2022-12-14T10:12:39.469Z,76
2022-12-14T10:13:52.120Z,76
2022-12-14T10:15:05.132Z,76
2022-12-14T10:16:22.751Z,76
2022-12-14T10:17:38.296Z,76
2022-12-14T10:19:00.406Z,76
2022-12-14T10:20:13.224Z,76
2022-12-14T10:21:23.001Z,76
2022-12-14T10:22:30.307Z,76
2022-12-14T10:23:42.682Z,76
2022-12-14T10:24:57.797Z,77
2022-12-14T10:26:07.517Z,76
2022-12-14T10:27:14.703Z,76
2022-12-14T10:28:24.591Z,76
2022-12-14T10:29:40.586Z,76
2022-12-14T10:30:47.696Z,76
2022-12-14T10:31:55.648Z,76
2022-12-14T10:33:11.642Z,76
2022-12-14T10:34:26.923Z,76
2022-12-14T10:35:35.096Z,76
2022-12-14T10:36:42.217Z,76
2022-12-14T10:37:57.224Z,76
2022-12-14T10:39:04.113Z,75
2022-12-14T10:40:17.707Z,75
2022-12-14T10:41:20.224Z,75
2022-12-14T10:42:32.760Z,75
2022-12-14T10:43:44.824Z,75
2022-12-14T10:45:16.563Z,74
2022-12-14T10:46:14.350Z,74
2022-12-14T10:47:23.737Z,74
2022-12-14T10:48:34.047Z,74
2022-12-14T10:49:46.139Z,75
2022-12-14T10:51:01.489Z,75
2022-12-14T10:52:08.449Z,74
2022-12-14T10:53:18.196Z,74
2022-12-14T10:54:25.308Z,74
2022-12-14T10:55:35.362Z,74
2022-12-14T10:56:42.677Z,74
2022-12-14T10:57:49.607Z,74
2022-12-14T10:58:56.754Z,74
2022-12-14T11:00:13.427Z,74
2022-12-14T11:01:19.032Z,73
2022-12-14T11:02:26.160Z,73
2022-12-14T11:03:33.205Z,73
2022-12-14T11:04:40.237Z,73
2022-12-14T11:05:52.316Z,73
2022-12-14T11:07:04.584Z,73
2022-12-14T11:08:11.872Z,72
2022-12-14T11:09:29.572Z,73
2022-12-14T11:10:36.676Z,72
2022-12-14T11:11:43.928Z,72
2022-12-14T11:12:50.921Z,72
2022-12-14T11:13:58.042Z,72
2022-12-14T11:15:10.280Z,72
2022-12-14T11:16:17.446Z,71
2022-12-14T11:17:27.711Z,71
2022-12-14T11:18:34.929Z,71
2022-12-14T11:19:42.070Z,72
2022-12-14T11:20:48.968Z,72
2022-12-14T11:22:01.780Z,72
2022-12-14T11:23:13.909Z,71
2022-12-14T11:24:21.236Z,71
2022-12-14T11:25:28.388Z,71
2022-12-14T11:26:45.973Z,71
2022-12-14T11:27:53.169Z,71
2022-12-14T11:29:00.536Z,71
2022-12-14T11:30:07.369Z,71
2022-12-14T11:31:14.646Z,70
2022-12-14T11:32:24.196Z,70
2022-12-14T11:33:31.352Z,70
2022-12-14T11:34:38.501Z,70
2022-12-14T11:35:45.662Z,70
2022-12-14T11:36:55.752Z,71
2022-12-14T11:38:13.069Z,71
2022-12-14T11:39:20.200Z,70
2022-12-14T11:40:27.290Z,70
2022-12-14T11:41:34.420Z,70
2022-12-14T11:42:41.680Z,70
2022-12-14T11:43:54.741Z,71
2022-12-14T11:45:04.496Z,71
2022-12-14T11:46:22.806Z,71
2022-12-14T11:47:40.111Z,70
2022-12-14T11:48:47.221Z,70
2022-12-14T11:49:54.513Z,70
2022-12-14T11:51:01.536Z,70
2022-12-14T11:52:11.748Z,70
2022-12-14T11:53:26.504Z,70
2022-12-14T11:54:34.473Z,71
2022-12-14T11:55:41.778Z,70
2022-12-14T11:56:52.010Z,70
2022-12-14T11:58:05.133Z,71
2022-12-14T11:59:15.313Z,71
2022-12-14T12:00:22.537Z,71
2022-12-14T12:01:32.739Z,71
2022-12-14T12:02:39.956Z,71
2022-12-14T12:03:50.169Z,71
2022-12-14T12:05:00.384Z,71
2022-12-14T12:06:15.469Z,72
2022-12-14T12:07:22.605Z,72
2022-12-14T12:08:30.159Z,72
2022-12-14T12:09:36.849Z,72
2022-12-14T12:10:44.057Z,71
2022-12-14T12:11:51.017Z,72
2022-12-14T12:12:58.247Z,72
2022-12-14T12:14:05.324Z,72
2022-12-14T12:15:22.697Z,72
2022-12-14T12:16:38.258Z,71
2022-12-14T12:17:45.116Z,71
2022-12-14T12:18:52.373Z,71
2022-12-14T12:19:59.188Z,71
2022-12-14T12:21:06.416Z,71
2022-12-14T12:22:16.102Z,71
2022-12-14T12:23:23.240Z,72
2022-12-14T12:24:33.485Z,72
2022-12-14T12:25:46.567Z,72
2022-12-14T12:26:54.571Z,72
2022-12-14T12:28:01.392Z,72
2022-12-14T12:29:08.511Z,73
2022-12-14T12:30:26.017Z,73
2022-12-14T12:31:33.051Z,72
2022-12-14T12:32:40.056Z,71
2022-12-14T12:33:47.274Z,71
2022-12-14T12:35:11.220Z,72
2022-12-14T12:36:21.992Z,73
2022-12-14T12:37:26.543Z,72
2022-12-14T12:38:35.542Z,72
2022-12-14T12:39:52.929Z,72
2022-12-14T12:41:06.572Z,73
2022-12-14T12:42:16.576Z,73
2022-12-14T12:43:26.689Z,72
2022-12-14T12:44:33.785Z,73
2022-12-14T12:45:49.053Z,73
2022-12-14T12:47:22.667Z,73
2022-12-14T12:48:08.358Z,73
2022-12-14T12:49:20.593Z,73
2022-12-14T12:50:27.702Z,73
2022-12-14T12:51:37.405Z,73
2022-12-14T12:52:55.460Z,74
2022-12-14T12:54:10.474Z,74
2022-12-14T12:55:22.677Z,74
2022-12-14T12:56:29.800Z,74
2022-12-14T12:57:37.021Z,74
2022-12-14T12:58:47.712Z,74
2022-12-14T12:59:51.685Z,74
2022-12-14T13:00:58.788Z,74
2022-12-14T13:02:06.084Z,75
2022-12-14T13:03:23.470Z,75
2022-12-14T13:04:33.486Z,76
2022-12-14T13:05:48.829Z,75
2022-12-14T13:06:47.648Z,75
2022-12-14T13:08:00.885Z,75
2022-12-14T13:09:11.150Z,75
2022-12-14T13:10:18.280Z,74
2022-12-14T13:11:27.262Z,75
2022-12-14T13:12:33.462Z,75
2022-12-14T13:13:40.645Z,79
2022-12-14T13:14:49.804Z,77
2022-12-14T13:15:55.398Z,76
2022-12-14T13:17:12.686Z,76
2022-12-14T13:18:49.091Z,76
2022-12-14T13:19:50.038Z,76
2022-12-14T13:20:41.742Z,76
2022-12-14T13:21:50.006Z,76
2022-12-14T13:22:57.323Z,75
2022-12-14T13:24:03.202Z,75
2022-12-14T13:25:10.963Z,76
2022-12-14T13:26:34.487Z,76
2022-12-14T13:27:30.749Z,76
2022-12-14T13:28:44.083Z,76
2022-12-14T13:29:56.332Z,76
2022-12-14T13:31:08.717Z,76
2022-12-14T13:32:20.851Z,76
2022-12-14T13:33:38.200Z,76
2022-12-14T13:34:50.310Z,76
2022-12-14T13:36:02.629Z,76
2022-12-14T13:37:20.192Z,76
2022-12-14T13:38:38.130Z,76
2022-12-14T13:39:50.670Z,77
2022-12-14T13:41:07.223Z,76
2022-12-14T13:42:24.662Z,77
2022-12-14T13:43:36.853Z,77
2022-12-14T13:44:52.032Z,77
2022-12-14T13:45:59.182Z,77
2022-12-14T13:47:08.844Z,77
2022-12-14T13:48:18.624Z,77
2022-12-14T13:49:28.280Z,77
2022-12-14T13:50:36.952Z,77
2022-12-14T13:51:42.622Z,78
2022-12-14T13:52:50.479Z,78
2022-12-14T13:54:02.960Z,78
2022-12-14T13:55:10.012Z,78
2022-12-14T13:56:32.870Z,78
2022-12-14T13:57:34.524Z,78
2022-12-14T13:58:41.706Z,78
2022-12-14T13:59:48.700Z,78
2022-12-14T14:00:55.907Z,78
2022-12-14T14:02:08.103Z,78
2022-12-14T14:03:25.637Z,78
2022-12-14T14:04:37.862Z,78
2022-12-14T14:05:44.877Z,78
2022-12-14T14:06:51.905Z,78
2022-12-14T14:07:59.109Z,78
2022-12-14T14:09:06.354Z,78
2022-12-14T14:10:23.549Z,78
2022-12-14T14:11:37.205Z,78
2022-12-14T14:12:43.019Z,79
2022-12-14T14:13:49.958Z,79
2022-12-14T14:15:03.266Z,79
2022-12-14T14:16:31.072Z,79
2022-12-14T14:17:22.944Z,79
2022-12-14T14:18:40.410Z,79
2022-12-14T14:19:56.040Z,79
2022-12-14T14:21:03.339Z,80
2022-12-14T14:22:24.438Z,79
2022-12-14T14:23:22.734Z,79
2022-12-14T14:24:29.948Z,79
2022-12-14T14:25:37.049Z,79
2022-12-14T14:26:49.154Z,79
2022-12-14T14:28:01.487Z,79
2022-12-14T14:29:08.491Z,78
2022-12-14T14:30:20.753Z,78
2022-12-14T14:31:36.205Z,79
2022-12-14T14:32:49.227Z,79
2022-12-14T14:33:57.394Z,79
2022-12-14T14:35:04.653Z,79
2022-12-14T14:36:21.931Z,79
2022-12-14T14:37:31.666Z,79
2022-12-14T14:38:39.108Z,79
2022-12-14T14:39:56.838Z,79
2022-12-14T14:41:18.227Z,79
2022-12-14T14:42:14.066Z,80
2022-12-14T14:43:24.250Z,79
2022-12-14T14:44:33.893Z,79
2022-12-14T14:45:44.163Z,79
2022-12-14T14:46:51.238Z,79
2022-12-14T14:47:58.167Z,79
2022-12-14T14:49:05.394Z,79
2022-12-14T14:50:17.726Z,79
2022-12-14T14:51:24.835Z,79
2022-12-14T14:52:34.967Z,79
2022-12-14T14:53:42.199Z,80
2022-12-14T14:55:56.446Z,80
2022-12-14T14:57:08.538Z,80
2022-12-14T14:58:25.811Z,80
2022-12-14T14:59:36.183Z,80
2022-12-14T15:00:43.326Z,80
2022-12-14T15:01:52.984Z,80
2022-12-14T15:03:01.119Z,80
2022-12-14T15:04:08.179Z,80
2022-12-14T15:06:30.573Z,81
2022-12-14T15:07:43.902Z,81
2022-12-14T15:08:50.902Z,81
2022-12-14T15:10:01.286Z,81
2022-12-14T15:11:11.717Z,81
2022-12-14T15:12:22.104Z,82
2022-12-14T15:13:34.347Z,81
2022-12-14T15:14:48.756Z,81
2022-12-14T15:15:53.819Z,81
2022-12-14T15:17:00.748Z,81
2022-12-14T15:18:15.530Z,81
2022-12-14T15:19:28.312Z,81
2022-12-14T15:20:38.440Z,81
2022-12-14T15:21:45.596Z,82
2022-12-14T15:22:55.705Z,81
2022-12-14T15:24:02.976Z,81
2022-12-14T15:25:10.081Z,82
2022-12-14T15:26:22.289Z,82
2022-12-14T15:27:29.339Z,82
2022-12-14T15:28:36.508Z,82
2022-12-14T15:29:43.603Z,82
2022-12-14T15:30:50.771Z,82
2022-12-14T15:31:59.707Z,82
2022-12-14T15:33:06.519Z,82
2022-12-14T15:34:13.859Z,82
2022-12-14T15:35:21.184Z,82
2022-12-14T15:36:33.611Z,82
2022-12-14T15:37:40.569Z,82
2022-12-14T15:38:55.808Z,82
2022-12-14T15:40:03.139Z,82
2022-12-14T15:41:13.801Z,82
2022-12-14T15:42:20.802Z,82
2022-12-14T15:43:28.672Z,82
2022-12-14T15:44:35.806Z,82
2022-12-14T15:45:42.833Z,82
2022-12-14T15:46:49.933Z,82
2022-12-14T15:47:57.111Z,82
2022-12-14T15:49:14.387Z,82
2022-12-14T15:50:21.514Z,82
2022-12-14T15:51:34.659Z,82
2022-12-14T15:52:41.859Z,82
2022-12-14T15:53:50.093Z,82
2022-12-14T15:54:56.271Z,82
2022-12-14T15:56:08.414Z,83
2022-12-14T15:57:20.626Z,82
2022-12-14T15:58:27.790Z,83
2022-12-14T15:59:37.589Z,83
2022-12-14T16:00:44.728Z,83
2022-12-14T16:01:55.886Z,83
2022-12-14T16:02:58.895Z,83
2022-12-14T16:04:06.080Z,83
2022-12-14T16:05:19.372Z,83
2022-12-14T16:06:26.343Z,83
2022-12-14T16:07:33.585Z,84
2022-12-14T16:08:40.747Z,83
2022-12-14T16:09:55.355Z,83
2022-12-14T16:11:02.583Z,83
2022-12-14T16:12:09.768Z,83
2022-12-14T16:13:25.134Z,83
2022-12-14T16:14:37.556Z,84
2022-12-14T16:15:53.051Z,84
2022-12-14T16:17:00.227Z,84
2022-12-14T16:18:07.391Z,84
2022-12-14T16:19:26.945Z,84
2022-12-14T16:20:25.210Z,84
2022-12-14T16:21:35.503Z,84
2022-12-14T16:22:42.703Z,84
2022-12-14T16:24:00.319Z,84
2022-12-14T16:25:17.774Z,84
2022-12-14T16:26:24.920Z,84
2022-12-14T16:27:37.110Z,84
2022-12-14T16:28:44.522Z,84
2022-12-14T16:29:51.764Z,84